• Join FlightAware (Why Join?)
  • Login
  • US Flag 
11:14PM EDT


 

Airport Tracker/Info


-or-


 

Live Flight TrackerFlight Track Log ✈ N31JN ✈ 13-Jul-2013 ✈ MYAT / TCB - KMLB

Flight Track Log - Related Links

Times and Time Zones

All times are in EDT time to prevent confusion due to time zone crossing. See the N31JN flight status page for this flight to view local times or setup timezone preferences in your user account.

Time Position Orientation Groundspeed Altitude Reporting Facility
EDT Latitude Longitude Course Direction KTS MPH feet Rate Location/Type
11:22AM 26.8578 -77.5992 299° West 230 265 8,600  Level Miami Center
11:23AM 26.8867 -77.6483 303° West 197 227 9,900 1,440 Climbing Miami Center
11:24AM 26.9156 -77.6928 306° West 180 207 11,500 1,320 Climbing Miami Center
11:25AM 26.9403 -77.7467 297° West 180 207 12,600 660 Climbing Miami Center
11:26AM 26.9714 -77.7981 304° West 191 220 12,900 600 Climbing Miami Center
11:27AM 26.8947 -77.6656 303° West  Level FlightAware Approximate
11:27AM 27.0003 -77.8472 303° West 202 232 13,800  Level Miami Center
11:28AM 27.0333 -77.9036 303° West 208 239 13,900  Climbing Miami Center
11:29AM 27.0683 -77.9692 301° West 226 260 13,900  Level Miami Center
11:30AM 27.1056 -78.0325 303° West 241 277 13,900  Level Miami Center
11:31AM 27.1425 -78.1078 299° West 255 293 13,900  Level Miami Center
11:32AM 27.1836 -78.1711 306° West 255 293 13,900  Level Miami Center
11:33AM 27.2186 -78.2439 298° West 260 299 13,900  Level Miami Center
11:34AM 27.2408 -78.3144 290° West 260 299 13,900  Level Miami Center
11:35AM 27.2525 -78.4033 278° West 252 290 13,900  Level Miami Center
11:36AM 27.2600 -78.4758 277° West 252 290 13,900  Level Miami Center
11:37AM 27.2842 -78.5439 292° West 240 276 13,900  Level Miami Center
11:38AM 27.3317 -78.6031 312° West 240 276 13,900  Level Miami Center
11:39AM 27.3789 -78.6669 310° West 250 288 13,900  Level Miami Center
11:40AM 27.4242 -78.7214 313° West 269 310 13,900  Level Miami Center
11:41AM 27.4714 -78.7878 309° West 269 310 13,900  Level Miami Center
11:42AM 27.5247 -78.8589 310° West 269 310 13,900  Level Miami Center
11:43AM 27.5614 -78.9253 302° West 269 310 13,900  Level Miami Center
11:44AM 27.5872 -79.0053 290° West 264 304 13,900  Level Miami Center
11:45AM 27.6092 -79.0761 289° West 264 304 13,900  Level Miami Center
11:46AM 27.6369 -79.1633 290° West 269 310 13,900 -120 Level Miami Center
11:47AM 27.6586 -79.2411 287° West 269 310 13,700 -420 Descending Miami Center
11:48AM 27.6867 -79.3214 292° West 269 310 13,100 -600 Descending Miami Center
11:49AM 27.7106 -79.3900 291° West 263 303 12,500 -600 Descending Miami Center
11:50AM 27.7342 -79.4681 289° West 263 303 11,900 -660 Descending Miami Center
11:51AM 27.7597 -79.5508 289° West 256 295 11,200 -720 Descending Miami Center
11:52AM 27.7814 -79.6286 287° West 256 295 10,500 -600 Descending Miami Center
11:53AM 27.8028 -79.7019 288° West 256 295 10,000 -300 Descending Miami Center
11:54AM 27.8244 -79.7683 290° West 251 289 10,000  Level Miami Center
11:55AM 27.8481 -79.8394 291° West 246 283 10,000 -360 Level Miami Center
11:56AM 27.8672 -79.9219 285° West 246 283 9,300 -720 Descending Miami Center
11:58AM 27.9000 -80.0667 284° West 233 268 8,000 -720 Descending Orlando TRACON
11:59AM 27.9333 -80.1167 307° West 231 266 7,400 -720 Descending Orlando TRACON
12:00PM 27.9500 -80.1833 286° West 235 270 6,700 -720 Descending Orlando TRACON
12:01PM 27.9833 -80.2500 300° West 236 272 6,000 -900 Descending Orlando TRACON
12:02PM 28.0000 -80.3167 286° West 237 273 5,100 -540 Descending Orlando TRACON
12:03PM 28.0167 -80.3833 286° West 217 250 5,000 -360 Descending Orlando TRACON
12:04PM 28.0167 -80.4667 270° West 212 244 4,400 -900 Descending Orlando TRACON
12:05PM 28.0167 -80.5333 270° West 220 253 3,100 -1,320 Descending Orlando TRACON